Fairbanks, Alaska
Current Conditions -  °F | °C
As of 12:56 PM on Sunday 25 Jan 2015 (Local Time) from PAFB Reporting Station
Haze Haze  
Wind Chill: -19°   Ceiling: 3300
Heat Index: -19°   Visibility: 6mi
Dew Point: -24°   Wind: 0mph
Humidity: 78%   Direction: NA
Pressure: 29.99"   Gusts: NA
Location:  64.85°N, 147.72°W
Report Text: PAFB 252156Z AUTO 00000KT 6SM HZ BKN033 OVC045 M28/M31 A2999 RMK SNE12 SLP176 P0000 T12831311 $ VIA AUTODIAL
Loading
Personal Weather Stations






























Interactive Weather Map New forecast layout! Learn more

10-Day Weather Forecast

Advertisements
Track Severe Weather on mobile